Time;durP1;ratioP1;P1;durP2;ratioP2;P2;SDS_P1;SDS_P2;PMS_P1;PMS_P2;Temp;Humidity;BMP_temperature;BMP_pressure;BME280_temperature;BME280_humidity;BME280_pressure;Samples;Min_cycle;Max_cycle;Signal;HPM_P1;HPM_P2
2021/10/10 00:03:57;;;;;;;31.2;20;;;;;;;0.6;100;99905.61;;;;
2021/10/10 00:13:55;;;;;;;28.4;20.4;;;;;;;0.49;100;99903.61;;;;
2021/10/10 00:23:53;;;;;;;26.3;18.7;;;;;;;0.43;100;99907.92;;;;
2021/10/10 00:33:50;;;;;;;33.4;20.9;;;;;;;0.44;100;99903.44;;;;
2021/10/10 00:43:48;;;;;;;26;18.1;;;;;;;0.38;100;99897.12;;;;
2021/10/10 00:53:46;;;;;;;25.2;19.9;;;;;;;0.24;100;99886.79;;;;
2021/10/10 01:03:44;;;;;;;20.4;17.1;;;;;;;0.09;100;99884.38;;;;
2021/10/10 01:13:41;;;;;;;31.2;19.6;;;;;;;-0.05;100;99880.95;;;;
2021/10/10 01:23:39;;;;;;;35.6;20.8;;;;;;;-0.17;100;99869.34;;;;
2021/10/10 01:33:37;;;;;;;30.6;16.7;;;;;;;-0.32;100;99852.88;;;;
2021/10/10 01:43:36;;;;;;;23.5;17;;;;;;;-0.4;100;99860.2;;;;
2021/10/10 01:53:37;;;;;;;22.3;18.2;;;;;;;-0.53;100;99853.09;;;;
2021/10/10 02:03:30;;;;;;;38.2;18.8;;;;;;;-0.58;100;99852.88;;;;
2021/10/10 02:13:27;;;;;;;26.6;18;;;;;;;-0.71;100;99853.71;;;;
2021/10/10 02:23:25;;;;;;;21.9;15.7;;;;;;;-0.85;100;99856.55;;;;
2021/10/10 02:33:23;;;;;;;24.8;18.8;;;;;;;-0.96;100;99847.38;;;;
2021/10/10 02:43:20;;;;;;;25.1;18;;;;;;;-0.95;100;99851.66;;;;
2021/10/10 02:53:18;;;;;;;27.4;19;;;;;;;-1.01;100;99847.19;;;;
2021/10/10 03:03:15;;;;;;;17.9;14.8;;;;;;;-0.95;100;99842.91;;;;
2021/10/10 03:13:13;;;;;;;29.3;20.1;;;;;;;-0.99;100;99839.84;;;;
2021/10/10 03:23:10;;;;;;;20.7;16.4;;;;;;;-0.99;100;99844.32;;;;
2021/10/10 03:33:08;;;;;;;20.6;18.4;;;;;;;-1.05;100;99827.44;;;;
2021/10/10 03:43:06;;;;;;;33.2;18.6;;;;;;;-1.11;100;99815.81;;;;
2021/10/10 03:53:03;;;;;;;24.4;15.1;;;;;;;-1.15;100;99808.5;;;;
2021/10/10 04:03:03;;;;;;;25.6;17.1;;;;;;;-1.2;100;99806.45;;;;
2021/10/10 04:12:58;;;;;;;27.5;16.6;;;;;;;-1.31;100;99803.58;;;;
2021/10/10 04:22:56;;;;;;;22.3;16.7;;;;;;;-1.4;100;99795.03;;;;
2021/10/10 04:32:53;;;;;;;29.7;20.8;;;;;;;-1.49;100;99801.5;;;;
2021/10/10 04:42:51;;;;;;;28.3;18.9;;;;;;;-1.55;100;99803.13;;;;
2021/10/10 04:52:49;;;;;;;26.2;19.3;;;;;;;-1.62;100;99802.3;;;;
2021/10/10 05:02:46;;;;;;;24;20.4;;;;;;;-1.67;100;99802.09;;;;
2021/10/10 05:12:44;;;;;;;28.1;20.4;;;;;;;-1.67;100;99801.28;;;;
2021/10/10 05:22:41;;;;;;;29.1;22.4;;;;;;;-1.58;100;99800.07;;;;
2021/10/10 05:32:39;;;;;;;29.7;25.6;;;;;;;-1.48;100;99797.03;;;;
2021/10/10 05:42:40;;;;;;;39;27.4;;;;;;;-1.2;100;99798.52;;;;
2021/10/10 05:52:36;;;;;;;37.3;26.9;;;;;;;-0.95;100;99808.51;;;;
2021/10/10 06:02:32;;;;;;;33;24.5;;;;;;;-0.8;100;99812.56;;;;
2021/10/10 06:12:29;;;;;;;43.4;29.9;;;;;;;-0.46;100;99803.59;;;;
2021/10/10 06:22:27;;;;;;;31.9;27;;;;;;;-0.15;100;99803.73;;;;
2021/10/10 06:32:25;;;;;;;36.4;31.5;;;;;;;0.12;100;99806.27;;;;
2021/10/10 06:42:23;;;;;;;35;27.1;;;;;;;0.54;100;99803.02;;;;
2021/10/10 06:52:20;;;;;;;40.2;26.2;;;;;;;0.87;100;99800.14;;;;
2021/10/10 07:02:18;;;;;;;34.4;28.8;;;;;;;1.32;100;99784.91;;;;
2021/10/10 07:12:16;;;;;;;31.5;26.4;;;;;;;1.7;100;99798.81;;;;
2021/10/10 07:22:27;;;;;;;29;25.9;;;;;;;1.99;100;99803.41;;;;
2021/10/10 07:32:12;;;;;;;39.8;27.6;;;;;;;2.29;100;99789.36;;;;
2021/10/10 07:42:10;;;;;;;42.9;26.1;;;;;;;2.57;100;99786.91;;;;
2021/10/10 07:52:09;;;;;;;29.4;26.3;;;;;;;3.03;100;99796.88;;;;
2021/10/10 08:02:07;;;;;;;32.3;27;;;;;;;3.42;100;99801.58;;;;
2021/10/10 08:12:05;;;;;;;29.1;26;;;;;;;3.67;100;99785.35;;;;
2021/10/10 08:22:03;;;;;;;35.7;26.5;;;;;;;4.17;100;99793.59;;;;
2021/10/10 08:32:01;;;;;;;28.8;23.7;;;;;;;4.17;100;99790.11;;;;
2021/10/10 08:42:02;;;;;;;31.1;26.6;;;;;;;4.56;100;99773.27;;;;
2021/10/10 08:51:58;;;;;;;30.4;25.1;;;;;;;5.48;100;99761.16;;;;
2021/10/10 09:01:56;;;;;;;28.2;23.1;;;;;;;6.37;100;99771.71;;;;
2021/10/10 09:11:55;;;;;;;40.2;23.8;;;;;;;6.29;100;99756.08;;;;
2021/10/10 09:21:53;;;;;;;31.1;22.9;;;;;;;6.86;100;99751.05;;;;
2021/10/10 09:31:52;;;;;;;27.4;24.6;;;;;;;6.92;100;99740.12;;;;
2021/10/10 09:41:53;;;;;;;27;23.7;;;;;;;7.25;100;99730.2;;;;
2021/10/10 09:51:49;;;;;;;30.3;25.4;;;;;;;7.63;100;99737.95;;;;
2021/10/10 10:01:48;;;;;;;22.7;19.5;;;;;;;7.59;100;99734.17;;;;
2021/10/10 10:11:47;;;;;;;26.1;21.1;;;;;;;7.82;100;99719.52;;;;
2021/10/10 10:21:45;;;;;;;31.2;24;;;;;;;7.97;100;99730.33;;;;
2021/10/10 10:31:44;;;;;;;27.5;23.8;;;;;;;8.59;100;99716.83;;;;
2021/10/10 10:41:43;;;;;;;29;21.9;;;;;;;8.65;100;99710.38;;;;
2021/10/10 10:51:43;;;;;;;23.9;20.6;;;;;;;9.17;100;99703.93;;;;
2021/10/10 11:01:41;;;;;;;28.4;23.5;;;;;;;9.69;100;99701.67;;;;
2021/10/10 11:11:40;;;;;;;23.3;21;;;;;;;9.97;100;99703.72;;;;
2021/10/10 11:21:39;;;;;;;30.6;19.6;;;;;;;10.23;100;99690.98;;;;
2021/10/10 11:31:38;;;;;;;29.1;22.2;;;;;;;10.51;100;99692.16;;;;
2021/10/10 11:41:37;;;;;;;23.3;20.8;;;;;;;10.15;100;99688.86;;;;
2021/10/10 11:51:44;;;;;;;20.9;18.6;;;;;;;10.31;100;99689.59;;;;
2021/10/10 12:01:35;;;;;;;23.9;18.3;;;;;;;10.46;100;99692.17;;;;
2021/10/10 12:11:34;;;;;;;21.6;18.1;;;;;;;10.57;100;99666.77;;;;
2021/10/10 12:21:35;;;;;;;28.4;19;;;;;;;10.9;99.62012;99655.16;;;;
2021/10/10 12:31:32;;;;;;;24;18;;;;;;;11.13;98.53906;99648.23;;;;
2021/10/10 12:41:40;;;;;;;22;16.6;;;;;;;11.03;97.38379;99651.83;;;;
2021/10/10 12:51:31;;;;;;;21.2;18;;;;;;;11.26;95.6582;99652.13;;;;
2021/10/10 13:01:30;;;;;;;23;18.2;;;;;;;11.7;94.39258;99641.13;;;;
2021/10/10 13:11:29;;;;;;;21.1;16.2;;;;;;;11.99;94.70313;99622.94;;;;
2021/10/10 13:21:28;;;;;;;25.9;23.1;;;;;;;11.79;86.98633;99621.32;;;;
2021/10/10 13:31:28;;;;;;;35.8;32;;;;;;;12.21;90.08301;99627.77;;;;
2021/10/10 13:41:27;;;;;;;20.2;15.7;;;;;;;11.97;88.69336;99623.25;;;;
2021/10/10 13:51:26;;;;;;;21.2;15.8;;;;;;;12.02;88.375;99611.55;;;;
2021/10/10 14:01:26;;;;;;;15;11.6;;;;;;;11.8;88.10645;99601.3;;;;
2021/10/10 14:11:25;;;;;;;27;14.4;;;;;;;11.82;87.00488;99596.42;;;;
2021/10/10 14:21:24;;;;;;;25.7;14.7;;;;;;;12.2;87.45313;99589.13;;;;
2021/10/10 14:31:24;;;;;;;23.8;15;;;;;;;11.91;86.2998;99591.16;;;;
2021/10/10 14:41:26;;;;;;;18.9;13.4;;;;;;;11.56;84.87598;99581.59;;;;
2021/10/10 14:51:22;;;;;;;23.4;14;;;;;;;11.4;87.82129;99574.79;;;;
2021/10/10 15:01:21;;;;;;;32.4;26.2;;;;;;;10.74;91.52441;99567.41;;;;
2021/10/10 15:11:21;;;;;;;21.5;16.5;;;;;;;10.31;94.67871;99554.88;;;;
2021/10/10 15:21:20;;;;;;;25.9;17.8;;;;;;;10.05;98.15137;99540.75;;;;
2021/10/10 15:31:20;;;;;;;24.6;18.6;;;;;;;9.71;100;99551.48;;;;
2021/10/10 15:41:18;;;;;;;33.9;26.1;;;;;;;9.48;100;99560.19;;;;
2021/10/10 15:51:20;;;;;;;17.8;12.6;;;;;;;8.98;100;99553.13;;;;
2021/10/10 16:01:16;;;;;;;19.5;12.9;;;;;;;8.57;100;99541.66;;;;
2021/10/10 16:11:16;;;;;;;18.6;16.3;;;;;;;8.07;100;99540.56;;;;
2021/10/10 16:21:17;;;;;;;19;14.3;;;;;;;7.65;100;99549.88;;;;
2021/10/10 16:31:16;;;;;;;36.5;21.2;;;;;;;7.34;100;99555.14;;;;
2021/10/10 16:41:20;;;;;;;30.5;21.1;;;;;;;6.96;100;99552.83;;;;
2021/10/10 16:51:09;;;;;;;25.3;19.8;;;;;;;6.57;100;99541.59;;;;
2021/10/10 17:01:08;;;;;;;149.5;121.7;;;;;;;6.21;100;99540.55;;;;
2021/10/10 17:11:07;;;;;;;34.5;20.9;;;;;;;5.98;100;99514.11;;;;
2021/10/10 17:21:07;;;;;;;25.6;22.8;;;;;;;6.01;100;99516.27;;;;
2021/10/10 17:31:04;;;;;;;30.8;25.9;;;;;;;5.76;100;99518.7;;;;
2021/10/10 17:41:02;;;;;;;37.8;29.9;;;;;;;5.47;100;99499.42;;;;
2021/10/10 17:51:00;;;;;;;44.5;33;;;;;;;5.11;100;99492.06;;;;
2021/10/10 18:01:07;;;;;;;41.3;31.6;;;;;;;4.92;100;99487.05;;;;
2021/10/10 18:11:11;;;;;;;43;37.8;;;;;;;4.68;100;99492.88;;;;
2021/10/10 18:20:56;;;;;;;43.5;33;;;;;;;4.52;100;99484.64;;;;
2021/10/10 18:30:54;;;;;;;31.2;28;;;;;;;4.35;100;99488.39;;;;
2021/10/10 18:40:52;;;;;;;37.7;31.4;;;;;;;4.13;100;99488.33;;;;
2021/10/10 18:50:50;;;;;;;39.7;27.6;;;;;;;4.05;100;99486.08;;;;
2021/10/10 19:00:48;;;;;;;31.3;27.2;;;;;;;3.89;100;99493.02;;;;
2021/10/10 19:10:47;;;;;;;68.9;57;;;;;;;3.66;100;99490.5;;;;
2021/10/10 19:20:45;;;;;;;87.7;66;;;;;;;3.43;100;99480.78;;;;
2021/10/10 19:30:43;;;;;;;44.6;34.4;;;;;;;3.26;100;99487.11;;;;
2021/10/10 19:40:41;;;;;;;38.6;31.5;;;;;;;3.02;100;99476.52;;;;
2021/10/10 19:50:39;;;;;;;69.5;56;;;;;;;2.91;100;99482.72;;;;
2021/10/10 20:00:37;;;;;;;47.9;33.5;;;;;;;2.8;100;99470.23;;;;
2021/10/10 20:10:35;;;;;;;45.8;31.6;;;;;;;2.72;100;99459.13;;;;
2021/10/10 20:20:34;;;;;;;37;29.3;;;;;;;2.57;100;99462.28;;;;
2021/10/10 20:30:32;;;;;;;41.8;37.2;;;;;;;2.45;100;99464.16;;;;
2021/10/10 20:40:30;;;;;;;50.6;45.3;;;;;;;2.31;100;99446.83;;;;
2021/10/10 20:50:28;;;;;;;50.4;42.6;;;;;;;2.26;100;99454.68;;;;
2021/10/10 21:00:26;;;;;;;48.2;40.3;;;;;;;2.14;100;99449.38;;;;
2021/10/10 21:10:24;;;;;;;46.7;38.5;;;;;;;2.08;100;99429.05;;;;
2021/10/10 21:20:22;;;;;;;51.5;38.9;;;;;;;2.08;100;99421.07;;;;
2021/10/10 21:30:24;;;;;;;43.1;36;;;;;;;1.98;100;99415.5;;;;
2021/10/10 21:40:23;;;;;;;51.6;41.1;;;;;;;2.02;100;99406.02;;;;
2021/10/10 21:50:17;;;;;;;35.4;31.7;;;;;;;1.97;100;99401.42;;;;
2021/10/10 22:00:39;;;;;;;40;34.3;;;;;;;1.88;100;99394;;;;
2021/10/10 22:10:12;;;;;;;46.4;31.8;;;;;;;1.84;100;99382.24;;;;
2021/10/10 22:20:10;;;;;;;34.2;30.5;;;;;;;1.71;100;99374.48;;;;
2021/10/10 22:30:23;;;;;;;36;31.5;;;;;;;1.59;100;99390.43;;;;
2021/10/10 22:40:05;;;;;;;33.5;30;;;;;;;1.5;100;99374.01;;;;
2021/10/10 22:50:03;;;;;;;35.7;29.5;;;;;;;1.41;100;99366.61;;;;
2021/10/10 23:00:01;;;;;;;38.7;28.7;;;;;;;1.32;100;99352.06;;;;
2021/10/10 23:09:59;;;;;;;31.2;27.9;;;;;;;1.21;100;99350.19;;;;
2021/10/10 23:19:57;;;;;;;36.8;27.1;;;;;;;1.18;100;99334.72;;;;
2021/10/10 23:29:55;;;;;;;33.7;29.3;;;;;;;1.04;100;99328;;;;
2021/10/10 23:39:53;;;;;;;40.9;36.7;;;;;;;0.89;100;99325.77;;;;
2021/10/10 23:49:51;;;;;;;40.1;35.9;;;;;;;0.81;100;99326.89;;;;
2021/10/10 23:59:49;;;;;;;33.3;29.8;;;;;;;0.69;100;99330.55;;;;
